Time;durP1;ratioP1;P1;durP2;ratioP2;P2;SDS_P1;SDS_P2;PMS_P1;PMS_P2;Temp;Humidity;BMP_temperature;BMP_pressure;BME280_temperature;BME280_humidity;BME280_pressure;Samples;Min_cycle;Max_cycle;Signal;HPM_P1;HPM_P2
2021/12/20 00:01:06;;;;;;;0.20;0.20;;;6.30;99.90;;;;;;5049791;28;20036;-76
2021/12/20 00:03:32;;;;;;;1.75;0.90;;;6.30;99.90;;;;;;5062659;28;20041;-77
2021/12/20 00:05:58;;;;;;;5.20;2.22;;;6.20;99.90;;;;;;5054067;28;20051;-76
2021/12/20 00:08:24;;;;;;;18.52;0.77;;;6.20;99.90;;;;;;5054236;28;20779;-76
2021/12/20 00:10:49;;;;;;;6.50;3.20;;;6.20;99.90;;;;;;5062558;28;20048;-77
2021/12/20 00:13:16;;;;;;;3.00;1.83;;;6.10;99.90;;;;;;5072324;28;20052;-76
2021/12/20 00:15:44;;;;;;;5.07;1.77;;;6.10;99.90;;;;;;5069376;28;20075;-76
2021/12/20 00:18:10;;;;;;;17.20;2.65;;;6.10;99.90;;;;;;5049820;28;20503;-76
2021/12/20 00:20:35;;;;;;;3.63;2.42;;;6.10;99.90;;;;;;5072415;28;20097;-76
2021/12/20 00:23:01;;;;;;;2.20;1.42;;;6.10;99.90;;;;;;5038659;28;20397;-77
2021/12/20 00:25:27;;;;;;;3.95;0.57;;;6.10;99.90;;;;;;5044040;28;20044;-77
2021/12/20 00:27:53;;;;;;;7.88;2.92;;;6.10;99.90;;;;;;5072222;28;20446;-76
2021/12/20 00:30:19;;;;;;;3.30;1.17;;;6.10;99.90;;;;;;5047829;28;20045;-77
2021/12/20 00:32:45;;;;;;;13.02;2.83;;;6.10;99.90;;;;;;5072198;28;20408;-76
2021/12/20 00:35:12;;;;;;;1.50;1.40;;;6.10;99.90;;;;;;5072249;28;20047;-76
2021/12/20 00:40:22;;;;;;;9.63;2.05;;;6.10;99.90;;;;;;5069613;28;20044;-77
2021/12/20 00:42:48;;;;;;;8.48;1.95;;;6.20;99.90;;;;;;5071702;28;20055;-77
2021/12/20 00:45:14;;;;;;;0.20;0.20;;;6.20;99.90;;;;;;5055331;28;20174;-77
2021/12/20 00:47:41;;;;;;;0.40;0.28;;;6.20;99.90;;;;;;5063987;28;20045;-77
2021/12/20 00:50:10;;;;;;;11.00;4.40;;;6.20;99.90;;;;;;5070429;28;20122;-77
2021/12/20 00:52:36;;;;;;;5.18;0.82;;;6.20;99.90;;;;;;5056589;28;20453;-77
2021/12/20 00:55:02;;;;;;;4.93;1.42;;;6.20;99.90;;;;;;5062545;28;20034;-77
2021/12/20 00:57:28;;;;;;;0.30;0.30;;;6.20;99.90;;;;;;5040181;28;20037;-77
2021/12/20 00:59:53;;;;;;;18.55;2.17;;;6.30;99.90;;;;;;5054866;28;20041;-77
2021/12/20 01:02:19;;;;;;;9.00;2.05;;;6.20;99.90;;;;;;5071566;28;20071;-77
2021/12/20 01:04:45;;;;;;;8.65;2.75;;;6.20;99.90;;;;;;5043797;28;20102;-77
2021/12/20 01:07:11;;;;;;;0.20;0.20;;;6.20;99.90;;;;;;5040201;28;20097;-77
2021/12/20 01:09:37;;;;;;;3.75;3.50;;;6.30;99.90;;;;;;5055918;28;20048;-77
2021/12/20 01:12:06;;;;;;;0.40;0.40;;;6.30;99.90;;;;;;5047434;28;20098;-77
2021/12/20 01:14:35;;;;;;;0.40;0.40;;;6.30;99.90;;;;;;5048383;28;20059;-76
2021/12/20 01:17:07;;;;;;;5.00;1.35;;;6.30;99.90;;;;;;5041108;28;20048;-77
2021/12/20 01:19:33;;;;;;;0.20;0.20;;;6.30;99.90;;;;;;5062988;28;20550;-76
2021/12/20 01:22:00;;;;;;;0.20;0.20;;;6.30;99.90;;;;;;5074707;28;20037;-77
2021/12/20 01:24:26;;;;;;;0.95;0.95;;;6.30;99.90;;;;;;5068552;28;20049;-77
2021/12/20 01:26:52;;;;;;;1.35;0.65;;;6.20;99.90;;;;;;5065187;28;20554;-77
2021/12/20 01:29:18;;;;;;;0.20;0.20;;;6.20;99.90;;;;;;5060019;28;20041;-77
2021/12/20 01:31:43;;;;;;;0.20;0.20;;;6.20;99.90;;;;;;5080244;28;20036;-77
2021/12/20 01:34:09;;;;;;;0.20;0.20;;;6.20;99.90;;;;;;5063630;28;20065;-76
2021/12/20 01:36:35;;;;;;;6.70;1.67;;;6.10;99.90;;;;;;5051543;28;20033;-76
2021/12/20 01:39:01;;;;;;;0.20;0.20;;;6.10;99.90;;;;;;5057876;28;20042;-76
2021/12/20 01:41:26;;;;;;;1.85;1.38;;;6.00;99.90;;;;;;5060122;28;20044;-76
2021/12/20 01:43:54;;;;;;;0.30;0.30;;;6.00;99.90;;;;;;5053884;28;20127;-76
2021/12/20 01:46:21;;;;;;;0.20;0.20;;;6.00;99.90;;;;;;5069134;28;20419;-76
2021/12/20 01:48:47;;;;;;;0.30;0.30;;;6.00;99.90;;;;;;5028984;28;20075;-76
2021/12/20 01:53:59;;;;;;;0.20;0.20;;;5.90;99.90;;;;;;5070309;28;20492;-76
2021/12/20 01:56:25;;;;;;;0.20;0.20;;;5.90;99.90;;;;;;5053317;28;20095;-76
2021/12/20 01:58:51;;;;;;;3.40;0.68;;;5.80;99.90;;;;;;5038867;28;20041;-76
2021/12/20 02:03:47;;;;;;;0.20;0.20;;;5.80;99.90;;;;;;5058492;28;20057;-76
2021/12/20 02:06:28;;;;;;;0.20;0.20;;;5.80;99.90;;;;;;5031693;28;20469;-76
2021/12/20 02:08:57;;;;;;;2.13;1.95;;;5.70;99.90;;;;;;5049084;28;20064;-77
2021/12/20 02:11:23;;;;;;;0.20;0.20;;;5.70;99.90;;;;;;5056993;28;20063;-77
2021/12/20 02:13:49;;;;;;;0.20;0.20;;;5.70;99.90;;;;;;5053496;28;20066;-76
2021/12/20 02:16:15;;;;;;;0.20;0.20;;;5.70;99.90;;;;;;5062692;28;20045;-77
2021/12/20 02:18:41;;;;;;;0.20;0.20;;;5.70;99.90;;;;;;5057773;28;20045;-76
2021/12/20 02:21:07;;;;;;;0.20;0.20;;;5.70;99.90;;;;;;5052193;28;20036;-76
2021/12/20 02:23:33;;;;;;;0.20;0.20;;;5.70;99.90;;;;;;5035601;28;20409;-76
2021/12/20 02:26:00;;;;;;;0.17;0.17;;;5.60;99.90;;;;;;5050802;28;20136;-77
2021/12/20 02:28:26;;;;;;;0.20;0.20;;;5.60;99.90;;;;;;5055487;28;20053;-77
2021/12/20 02:38:55;;;;;;;0.20;0.20;;;5.60;99.90;;;;;;5051980;28;20127;-77
2021/12/20 02:41:31;;;;;;;0.20;0.20;;;5.60;99.90;;;;;;5052614;28;20472;-76
2021/12/20 02:44:04;;;;;;;0.20;0.20;;;5.60;99.90;;;;;;5053099;28;20045;-76
2021/12/20 02:49:09;;;;;;;0.30;0.30;;;5.60;99.90;;;;;;5051925;28;20061;-77
2021/12/20 02:51:35;;;;;;;0.20;0.20;;;5.60;99.90;;;;;;5052626;28;20052;-77
2021/12/20 02:54:04;;;;;;;0.20;0.20;;;5.60;99.90;;;;;;5069210;28;20071;-76
2021/12/20 02:56:30;;;;;;;0.20;0.20;;;5.60;99.90;;;;;;5066356;28;20047;-77
2021/12/20 02:58:55;;;;;;;2.60;2.13;;;5.60;99.90;;;;;;5052863;28;20454;-77
2021/12/20 03:01:22;;;;;;;7.03;1.23;;;5.60;99.90;;;;;;5057476;28;20111;-77
2021/12/20 03:03:49;;;;;;;0.20;0.20;;;5.60;99.90;;;;;;5054118;28;20041;-76
2021/12/20 03:06:26;;;;;;;0.20;0.20;;;5.60;99.90;;;;;;5053256;28;20040;-77
2021/12/20 03:08:54;;;;;;;0.20;0.20;;;5.60;99.90;;;;;;5069370;28;20054;-76
2021/12/20 03:11:23;;;;;;;0.20;0.20;;;5.60;99.90;;;;;;5032608;28;20068;-76
2021/12/20 03:13:53;;;;;;;0.20;0.20;;;5.60;99.90;;;;;;5045310;28;20045;-76
2021/12/20 03:16:19;;;;;;;0.20;0.20;;;5.60;99.90;;;;;;5082530;28;20374;-76
2021/12/20 03:18:45;;;;;;;0.20;0.20;;;5.60;99.90;;;;;;5059957;28;20037;-76
2021/12/20 03:21:11;;;;;;;0.20;0.20;;;5.60;99.90;;;;;;5084196;28;20101;-76
2021/12/20 03:23:37;;;;;;;0.20;0.20;;;5.60;99.90;;;;;;5052472;28;20124;-76
2021/12/20 03:26:04;;;;;;;0.20;0.20;;;5.50;99.90;;;;;;5056567;28;20052;-76
2021/12/20 03:28:29;;;;;;;0.20;0.20;;;5.60;99.90;;;;;;5041970;28;20525;-76
2021/12/20 03:30:55;;;;;;;0.20;0.20;;;5.50;99.90;;;;;;5051663;28;20044;-76
2021/12/20 03:33:21;;;;;;;0.20;0.20;;;5.50;99.90;;;;;;5046593;28;20068;-77
2021/12/20 03:35:47;;;;;;;0.20;0.20;;;5.40;99.90;;;;;;5068962;28;20037;-77
2021/12/20 03:38:12;;;;;;;0.20;0.20;;;5.40;99.90;;;;;;5043811;28;20033;-76
2021/12/20 03:40:38;;;;;;;0.20;0.20;;;5.40;99.90;;;;;;5069519;28;20595;-76
2021/12/20 03:43:06;;;;;;;3.42;1.00;;;5.30;99.90;;;;;;5069274;28;20040;-76
2021/12/20 03:45:33;;;;;;;0.20;0.20;;;5.30;99.90;;;;;;5041422;28;20040;-76
2021/12/20 03:47:59;;;;;;;0.20;0.20;;;5.30;99.90;;;;;;5039924;28;20056;-76
2021/12/20 03:50:27;;;;;;;2.03;1.85;;;5.30;99.90;;;;;;5069092;28;20036;-76
2021/12/20 03:52:53;;;;;;;0.30;0.30;;;5.30;99.90;;;;;;5052412;28;20037;-76
2021/12/20 03:55:19;;;;;;;0.20;0.20;;;5.20;99.90;;;;;;5039295;28;20194;-76
2021/12/20 03:57:45;;;;;;;0.30;0.30;;;5.20;99.90;;;;;;5059989;28;20144;-77
2021/12/20 04:00:13;;;;;;;6.05;2.10;;;5.20;99.90;;;;;;5086365;28;20036;-76
2021/12/20 04:02:43;;;;;;;0.20;0.20;;;5.20;99.90;;;;;;5085773;28;20495;-76
2021/12/20 04:05:10;;;;;;;0.20;0.20;;;5.20;99.90;;;;;;5067768;28;20040;-76
2021/12/20 04:07:36;;;;;;;1.65;1.50;;;5.10;99.90;;;;;;5045211;28;20048;-76
2021/12/20 04:10:02;;;;;;;6.13;0.85;;;5.10;99.90;;;;;;5074486;28;20041;-77
2021/12/20 04:12:28;;;;;;;0.20;0.20;;;5.10;99.90;;;;;;5067206;28;20059;-76
2021/12/20 04:14:54;;;;;;;1.42;1.38;;;5.10;99.90;;;;;;5059285;28;20033;-77
2021/12/20 04:17:20;;;;;;;0.20;0.20;;;5.00;99.90;;;;;;5064676;28;20039;-76
2021/12/20 04:19:46;;;;;;;0.57;0.57;;;5.00;99.90;;;;;;5055962;28;20074;-77
2021/12/20 04:22:11;;;;;;;0.20;0.20;;;5.00;99.90;;;;;;5064582;28;20128;-77
2021/12/20 04:24:37;;;;;;;0.20;0.20;;;5.00;99.90;;;;;;5050607;28;20485;-76
2021/12/20 04:27:03;;;;;;;0.20;0.20;;;5.00;99.90;;;;;;5068486;28;20040;-76
2021/12/20 04:29:30;;;;;;;0.38;0.38;;;5.00;99.90;;;;;;5066973;28;20048;-76
2021/12/20 04:31:55;;;;;;;0.20;0.20;;;5.00;99.90;;;;;;5047077;28;20049;-77
2021/12/20 04:34:21;;;;;;;0.20;0.20;;;4.90;99.90;;;;;;5052382;28;20052;-77
2021/12/20 04:36:47;;;;;;;0.70;0.70;;;4.90;99.90;;;;;;5085467;28;20452;-76
2021/12/20 04:39:17;;;;;;;0.30;0.30;;;4.90;99.90;;;;;;5056321;28;20048;-77
2021/12/20 04:41:43;;;;;;;0.30;0.30;;;4.90;99.90;;;;;;5068589;28;20041;-77
2021/12/20 04:44:09;;;;;;;0.50;0.50;;;4.90;99.90;;;;;;5045897;28;20783;-77
2021/12/20 04:46:35;;;;;;;0.28;0.28;;;4.90;99.90;;;;;;5054693;28;20102;-77
2021/12/20 04:49:01;;;;;;;0.82;0.77;;;4.90;99.90;;;;;;5054186;28;20397;-77
2021/12/20 04:51:27;;;;;;;0.22;0.22;;;5.00;99.90;;;;;;5071761;28;20566;-76
2021/12/20 04:53:52;;;;;;;0.30;0.30;;;4.90;99.90;;;;;;5068058;28;20136;-76
2021/12/20 04:56:18;;;;;;;0.20;0.20;;;5.00;99.90;;;;;;5025849;28;20047;-76
2021/12/20 04:58:44;;;;;;;0.20;0.20;;;5.00;99.90;;;;;;5051600;28;20040;-76
2021/12/20 05:01:09;;;;;;;0.20;0.20;;;5.00;99.90;;;;;;5067374;28;20079;-76
2021/12/20 05:03:35;;;;;;;0.65;0.65;;;5.00;99.90;;;;;;5057511;28;20052;-76
2021/12/20 05:06:01;;;;;;;0.43;0.43;;;5.00;99.90;;;;;;5052838;28;20408;-76
2021/12/20 05:08:33;;;;;;;0.20;0.20;;;5.00;99.90;;;;;;5071401;28;20090;-77
2021/12/20 05:11:00;;;;;;;0.20;0.20;;;5.00;99.90;;;;;;5071368;28;20048;-76
2021/12/20 05:13:25;;;;;;;2.08;1.38;;;5.00;99.90;;;;;;5041483;28;20095;-76
2021/12/20 05:15:51;;;;;;;0.82;0.82;;;5.00;99.90;;;;;;5067320;28;20050;-76
2021/12/20 05:18:17;;;;;;;0.63;0.63;;;5.00;99.90;;;;;;5069854;28;20075;-77
2021/12/20 05:20:43;;;;;;;0.30;0.30;;;5.00;99.90;;;;;;5037626;28;20079;-77
2021/12/20 05:23:09;;;;;;;0.30;0.30;;;4.90;99.90;;;;;;5061053;28;20040;-76
2021/12/20 05:25:36;;;;;;;0.20;0.20;;;4.90;99.90;;;;;;5054357;28;20094;-76
2021/12/20 05:28:02;;;;;;;0.20;0.20;;;4.90;99.90;;;;;;5054071;28;20044;-76
2021/12/20 05:30:28;;;;;;;1.65;1.00;;;4.80;99.90;;;;;;5039278;28;20123;-76
2021/12/20 05:32:55;;;;;;;0.20;0.20;;;4.80;99.90;;;;;;5070851;28;20124;-76
2021/12/20 05:35:21;;;;;;;0.20;0.20;;;4.80;99.90;;;;;;5054304;28;20041;-77
2021/12/20 05:37:48;;;;;;;0.20;0.20;;;4.70;99.90;;;;;;5044251;28;20042;-77
2021/12/20 05:40:14;;;;;;;0.30;0.30;;;4.60;99.90;;;;;;5066197;28;20048;-76
2021/12/20 05:42:41;;;;;;;0.40;0.40;;;4.60;99.90;;;;;;5070459;28;20048;-77
2021/12/20 05:45:08;;;;;;;0.30;0.30;;;4.50;99.90;;;;;;5054222;28;20446;-77
2021/12/20 05:47:34;;;;;;;0.32;0.32;;;4.40;99.90;;;;;;5057120;28;20531;-76
2021/12/20 05:50:00;;;;;;;0.20;0.20;;;4.40;99.90;;;;;;5038414;28;20037;-77
2021/12/20 05:52:25;;;;;;;0.30;0.30;;;4.30;99.90;;;;;;5053845;28;20155;-76
2021/12/20 05:54:51;;;;;;;0.20;0.20;;;4.30;99.90;;;;;;5062169;28;20040;-76
2021/12/20 05:57:17;;;;;;;0.22;0.22;;;4.20;99.90;;;;;;5069917;28;20072;-76
2021/12/20 05:59:42;;;;;;;0.20;0.20;;;4.20;99.90;;;;;;5087263;28;20036;-77
2021/12/20 06:02:08;;;;;;;0.20;0.20;;;4.10;99.90;;;;;;5070346;28;20393;-77
2021/12/20 06:04:34;;;;;;;0.20;0.20;;;4.00;99.90;;;;;;5050659;28;20045;-76
2021/12/20 06:07:00;;;;;;;0.20;0.20;;;3.90;99.90;;;;;;5061221;28;20147;-76
2021/12/20 06:09:27;;;;;;;10.65;0.63;;;3.80;99.90;;;;;;5070102;28;20067;-76
2021/12/20 06:11:54;;;;;;;0.30;0.30;;;3.80;99.90;;;;;;5069949;28;20102;-76
2021/12/20 06:14:20;;;;;;;0.22;0.22;;;3.70;99.90;;;;;;5045577;28;20162;-76
2021/12/20 06:16:46;;;;;;;0.30;0.30;;;3.60;99.90;;;;;;5053196;28;20498;-77
2021/12/20 06:19:12;;;;;;;0.30;0.30;;;3.60;99.90;;;;;;5052757;28;20101;-77
2021/12/20 06:21:37;;;;;;;0.20;0.20;;;3.50;99.90;;;;;;5051354;28;20429;-77
2021/12/20 06:24:03;;;;;;;0.30;0.30;;;3.40;99.90;;;;;;5052683;28;20059;-76
2021/12/20 06:26:29;;;;;;;0.20;0.20;;;3.30;99.90;;;;;;5044327;28;20044;-77
2021/12/20 06:28:55;;;;;;;0.20;0.20;;;3.20;99.90;;;;;;5069279;28;20052;-76
2021/12/20 06:31:21;;;;;;;0.20;0.20;;;3.10;99.90;;;;;;5052730;28;20162;-77
2021/12/20 06:33:46;;;;;;;0.20;0.20;;;3.00;99.90;;;;;;5031774;28;20041;-77
2021/12/20 06:36:12;;;;;;;0.20;0.20;;;3.00;99.90;;;;;;5049727;28;20108;-77
2021/12/20 06:38:44;;;;;;;0.30;0.30;;;3.00;99.90;;;;;;5050958;28;20079;-76
2021/12/20 06:41:10;;;;;;;0.20;0.20;;;2.80;99.90;;;;;;5061448;28;20051;-77
2021/12/20 06:43:36;;;;;;;0.30;0.30;;;2.70;99.90;;;;;;5037367;28;20089;-77
2021/12/20 06:46:02;;;;;;;0.30;0.30;;;2.70;99.90;;;;;;5052647;28;20040;-76
2021/12/20 06:48:28;;;;;;;1.58;1.48;;;2.60;99.90;;;;;;5042293;28;20051;-77
2021/12/20 06:50:54;;;;;;;0.50;0.50;;;2.60;99.90;;;;;;5061397;28;20044;-77
2021/12/20 06:53:19;;;;;;;0.43;0.43;;;2.50;99.90;;;;;;5053167;28;20090;-77
2021/12/20 06:55:45;;;;;;;2.25;2.15;;;2.40;99.90;;;;;;5049130;28;20076;-77
2021/12/20 06:58:11;;;;;;;0.32;0.32;;;2.30;99.90;;;;;;5054525;28;20032;-77
2021/12/20 07:00:37;;;;;;;0.40;0.40;;;2.30;99.90;;;;;;5050426;28;20037;-77
2021/12/20 07:03:03;;;;;;;0.50;0.50;;;2.20;99.90;;;;;;5031631;28;20508;-77
2021/12/20 07:05:29;;;;;;;0.30;0.30;;;2.20;99.90;;;;;;5089183;28;20137;-77
2021/12/20 07:07:55;;;;;;;0.30;0.30;;;2.10;99.90;;;;;;5049824;28;20051;-76
2021/12/20 07:10:22;;;;;;;0.63;0.63;;;2.10;99.90;;;;;;5041071;28;20128;-76
2021/12/20 07:12:48;;;;;;;0.22;0.22;;;2.10;99.90;;;;;;5060330;28;20083;-77
2021/12/20 07:15:14;;;;;;;0.30;0.30;;;2.10;99.90;;;;;;5056311;28;20048;-77
2021/12/20 07:17:42;;;;;;;2.55;1.13;;;2.00;99.90;;;;;;5068379;28;20052;-77
2021/12/20 07:20:08;;;;;;;5.30;1.15;;;2.00;99.90;;;;;;5048099;28;20037;-76
2021/12/20 07:22:34;;;;;;;0.30;0.30;;;2.00;99.90;;;;;;5060913;28;20047;-77
2021/12/20 07:25:01;;;;;;;28.77;1.85;;;1.90;99.90;;;;;;5057062;28;20463;-77
2021/12/20 07:27:27;;;;;;;0.30;0.30;;;1.90;99.90;;;;;;5056827;28;20371;-76
2021/12/20 07:29:53;;;;;;;0.30;0.30;;;1.80;99.90;;;;;;5027836;28;20056;-76
2021/12/20 07:32:19;;;;;;;8.98;3.03;;;1.70;99.90;;;;;;5065357;28;20052;-77
2021/12/20 07:34:45;;;;;;;0.32;0.32;;;1.60;99.90;;;;;;5057910;28;20050;-77
2021/12/20 07:37:10;;;;;;;0.75;0.75;;;1.60;99.90;;;;;;5082113;28;20094;-77
2021/12/20 07:39:36;;;;;;;0.75;0.75;;;1.60;99.90;;;;;;5076663;28;20049;-77
2021/12/20 07:42:03;;;;;;;0.40;0.40;;;1.50;99.90;;;;;;5061881;28;20488;-77
2021/12/20 07:44:28;;;;;;;0.75;0.75;;;1.50;99.90;;;;;;5032996;28;20404;-77
2021/12/20 07:46:54;;;;;;;0.30;0.30;;;1.40;99.90;;;;;;5065102;28;20044;-76
2021/12/20 07:49:20;;;;;;;0.30;0.30;;;1.40;99.90;;;;;;5033609;28;20049;-77
2021/12/20 07:51:46;;;;;;;0.30;0.30;;;1.40;99.90;;;;;;5031874;28;20041;-77
2021/12/20 07:54:12;;;;;;;1.42;1.38;;;1.40;99.90;;;;;;5078434;28;20037;-77
2021/12/20 07:56:38;;;;;;;0.30;0.30;;;1.30;99.90;;;;;;5068628;28;20038;-77
2021/12/20 07:59:04;;;;;;;0.30;0.30;;;1.30;99.90;;;;;;5024921;28;20041;-77
2021/12/20 08:01:33;;;;;;;0.30;0.30;;;1.40;99.90;;;;;;5036070;28;20072;-77
2021/12/20 08:03:59;;;;;;;0.30;0.30;;;1.40;99.90;;;;;;5031099;28;20036;-77
2021/12/20 08:06:25;;;;;;;0.30;0.30;;;1.30;99.90;;;;;;5049387;28;20047;-77
2021/12/20 08:08:50;;;;;;;0.30;0.30;;;1.30;99.90;;;;;;5077611;28;20087;-77
2021/12/20 08:11:16;;;;;;;0.30;0.30;;;1.30;99.90;;;;;;5030077;28;20135;-77
2021/12/20 08:13:44;;;;;;;1.45;1.35;;;1.30;99.90;;;;;;5083456;28;20108;-76
2021/12/20 08:16:12;;;;;;;0.30;0.30;;;1.40;99.90;;;;;;5056017;28;20520;-77
2021/12/20 08:18:43;;;;;;;0.30;0.30;;;1.30;99.90;;;;;;5079737;28;20056;-77
2021/12/20 08:21:09;;;;;;;0.68;0.68;;;1.30;99.90;;;;;;5049668;28;20068;-77
2021/12/20 08:23:36;;;;;;;0.60;0.60;;;1.40;99.90;;;;;;5032820;28;20080;-77
2021/12/20 08:26:04;;;;;;;0.43;0.43;;;1.50;99.90;;;;;;5031216;28;20095;-77
2021/12/20 08:28:31;;;;;;;0.30;0.30;;;1.50;99.90;;;;;;5050866;28;20049;-77
2021/12/20 08:30:57;;;;;;;0.30;0.30;;;1.70;99.90;;;;;;5066640;28;20041;-77
2021/12/20 08:33:23;;;;;;;0.30;0.30;;;1.80;99.90;;;;;;5037830;28;20423;-77
2021/12/20 08:35:49;;;;;;;0.25;0.25;;;1.90;99.90;;;;;;5035268;28;20033;-77
2021/12/20 08:38:19;;;;;;;0.30;0.30;;;2.10;99.90;;;;;;5030999;28;20069;-77
2021/12/20 08:40:46;;;;;;;0.30;0.30;;;2.20;99.90;;;;;;5075655;28;20417;-77
2021/12/20 08:43:12;;;;;;;0.30;0.30;;;2.50;99.90;;;;;;5082141;28;20045;-77
2021/12/20 08:45:38;;;;;;;0.30;0.30;;;2.70;99.90;;;;;;5083225;28;20091;-76
2021/12/20 08:48:04;;;;;;;0.30;0.30;;;3.10;99.90;;;;;;5037729;28;20040;-77
2021/12/20 08:50:30;;;;;;;3.08;2.25;;;3.40;99.90;;;;;;5050961;28;20041;-76
2021/12/20 08:52:55;;;;;;;0.30;0.30;;;3.70;99.90;;;;;;5034201;28;20047;-77
2021/12/20 08:55:23;;;;;;;0.35;0.35;;;4.00;99.90;;;;;;5049356;28;20099;-77
2021/12/20 08:57:49;;;;;;;0.30;0.30;;;4.30;99.90;;;;;;5048813;28;20077;-77
2021/12/20 09:00:22;;;;;;;0.30;0.30;;;4.40;99.90;;;;;;5033639;28;20056;-77
2021/12/20 09:02:48;;;;;;;;;;;4.50;99.90;;;;;;5049999;28;20048;-76
2021/12/20 09:05:14;;;;;;;0.30;0.30;;;4.70;99.90;;;;;;5041902;28;19920;-77
2021/12/20 09:07:41;;;;;;;0.30;0.30;;;4.90;99.90;;;;;;5033908;28;20048;-76
2021/12/20 09:10:09;;;;;;;3.50;1.38;;;5.00;99.90;;;;;;5031923;28;20456;-77
2021/12/20 09:12:35;;;;;;;3.50;2.38;;;5.20;99.90;;;;;;5033719;28;20041;-76
2021/12/20 09:15:01;;;;;;;0.30;0.30;;;5.40;99.90;;;;;;5060516;28;20567;-77
2021/12/20 09:17:27;;;;;;;0.20;0.20;;;5.60;99.90;;;;;;5053467;28;20037;-76
2021/12/20 09:19:53;;;;;;;0.30;0.30;;;5.80;99.90;;;;;;5049564;28;20036;-76
2021/12/20 09:22:25;;;;;;;0.20;0.20;;;5.90;99.90;;;;;;5094883;28;20187;-77
2021/12/20 09:24:51;;;;;;;0.30;0.30;;;6.10;99.90;;;;;;5023935;28;20424;-76
2021/12/20 09:27:17;;;;;;;0.20;0.20;;;6.20;99.90;;;;;;5072795;28;20102;-77
2021/12/20 09:29:43;;;;;;;0.50;0.50;;;6.20;99.90;;;;;;5044183;28;20588;-77
2021/12/20 09:32:09;;;;;;;0.20;0.20;;;6.30;99.90;;;;;;5028361;28;20047;-76
2021/12/20 09:34:35;;;;;;;0.30;0.30;;;6.40;99.90;;;;;;5034107;28;20163;-77
2021/12/20 09:37:07;;;;;;;22.73;0.68;;;6.50;99.90;;;;;;5046933;28;20466;-77
2021/12/20 09:39:38;;;;;;;0.60;0.60;;;6.50;99.90;;;;;;5067326;28;20117;-77
2021/12/20 09:42:05;;;;;;;7.50;1.42;;;6.40;99.90;;;;;;5053422;28;20078;-76
2021/12/20 09:44:31;;;;;;;7.68;1.20;;;6.50;99.90;;;;;;5039757;28;20411;-76
2021/12/20 09:47:00;;;;;;;0.40;0.40;;;6.50;99.90;;;;;;5046484;28;20049;-76
2021/12/20 09:49:27;;;;;;;1.15;0.85;;;6.60;99.90;;;;;;5059180;28;20048;-76
2021/12/20 09:51:54;;;;;;;4.93;2.15;;;6.70;99.90;;;;;;5044411;28;20049;-76
2021/12/20 09:54:20;;;;;;;0.20;0.20;;;6.80;99.90;;;;;;5033943;28;20041;-77
2021/12/20 09:56:48;;;;;;;7.97;0.75;;;6.80;99.90;;;;;;5066103;28;20044;-76
2021/12/20 09:59:18;;;;;;;0.60;0.60;;;6.80;99.90;;;;;;5045339;28;20053;-76
2021/12/20 10:01:45;;;;;;;0.75;0.45;;;6.90;99.90;;;;;;5080642;28;20084;-76
2021/12/20 10:04:12;;;;;;;0.52;0.40;;;6.90;99.90;;;;;;5060745;28;20041;-76
2021/12/20 10:06:38;;;;;;;0.20;0.20;;;6.90;99.90;;;;;;5050154;28;20045;-76
2021/12/20 10:09:11;;;;;;;1.48;1.38;;;7.00;99.90;;;;;;5028965;28;20042;-76
2021/12/20 10:11:38;;;;;;;0.25;0.25;;;7.00;99.90;;;;;;5065173;28;20044;-76
2021/12/20 10:14:08;;;;;;;6.60;1.73;;;7.00;99.90;;;;;;5058338;28;20697;-76
2021/12/20 10:16:35;;;;;;;11.70;1.27;;;7.00;99.90;;;;;;5069889;28;20071;-76
2021/12/20 10:19:02;;;;;;;0.45;0.45;;;7.00;99.90;;;;;;5057911;28;20041;-77
2021/12/20 10:21:40;;;;;;;1.55;0.63;;;7.10;99.90;;;;;;5032216;28;20076;-76
2021/12/20 10:24:07;;;;;;;1.17;1.10;;;7.20;99.90;;;;;;5069278;28;20090;-76
2021/12/20 10:26:43;;;;;;;4.53;1.45;;;7.30;99.90;;;;;;5056101;28;20045;-76
2021/12/20 10:29:20;;;;;;;0.30;0.30;;;7.40;99.90;;;;;;5047913;28;20033;-76
2021/12/20 10:31:46;;;;;;;0.40;0.40;;;7.40;99.90;;;;;;5033131;28;20049;-77
2021/12/20 10:34:14;;;;;;;5.35;1.52;;;7.40;99.90;;;;;;5061225;28;20036;-78
2021/12/20 10:36:54;;;;;;;0.90;0.50;;;7.50;99.90;;;;;;5055718;28;20098;-78
2021/12/20 10:39:41;;;;;;;1.27;1.17;;;7.50;99.90;;;;;;5065529;28;20040;-78
2021/12/20 10:42:17;;;;;;;0.55;0.55;;;7.50;99.90;;;;;;5040164;28;20106;-77
2021/12/20 10:44:43;;;;;;;5.25;1.35;;;7.60;99.90;;;;;;5049193;28;20055;-77
2021/12/20 10:47:24;;;;;;;0.20;0.20;;;7.60;99.90;;;;;;5038587;28;20127;-77
2021/12/20 10:49:50;;;;;;;2.75;0.70;;;7.60;99.90;;;;;;5049722;28;20107;-77
2021/12/20 10:52:27;;;;;;;0.73;0.60;;;7.70;99.90;;;;;;5049366;28;20043;-77
2021/12/20 10:54:52;;;;;;;4.38;0.85;;;7.80;99.90;;;;;;5032663;28;20041;-77
2021/12/20 10:57:28;;;;;;;3.42;0.82;;;7.80;99.90;;;;;;5082390;28;20118;-77
2021/12/20 11:00:17;;;;;;;0.47;0.47;;;7.90;99.90;;;;;;5053276;28;20128;-77
2021/12/20 11:05:45;;;;;;;0.30;0.30;;;8.00;99.90;;;;;;5049454;28;20045;-77
2021/12/20 11:11:12;;;;;;;8.15;1.35;;;8.20;99.90;;;;;;5059314;28;20127;-77
2021/12/20 11:13:39;;;;;;;1.85;1.23;;;8.20;99.90;;;;;;5036992;28;20079;-77
2021/12/20 11:16:38;;;;;;;0.98;0.95;;;8.20;99.90;;;;;;5048582;28;20050;-77
2021/12/20 11:19:06;;;;;;;0.90;0.85;;;8.30;99.90;;;;;;5040419;28;20037;-77
2021/12/20 11:21:33;;;;;;;0.20;0.20;;;8.40;99.90;;;;;;5035546;28;20117;-77
2021/12/20 11:24:02;;;;;;;0.20;0.20;;;8.50;99.90;;;;;;5081129;28;20106;-77
2021/12/20 11:26:28;;;;;;;1.10;0.68;;;8.60;99.90;;;;;;5055132;28;20048;-77
2021/12/20 11:28:57;;;;;;;0.20;0.20;;;8.60;99.90;;;;;;5031681;28;20048;-77
2021/12/20 11:31:24;;;;;;;1.83;0.93;;;8.60;99.90;;;;;;5055566;28;20463;-77
2021/12/20 11:33:49;;;;;;;0.82;0.82;;;8.70;99.90;;;;;;5036849;28;20064;-77
2021/12/20 11:36:15;;;;;;;2.67;1.92;;;8.80;99.90;;;;;;5028687;28;20076;-77
2021/12/20 11:38:41;;;;;;;0.30;0.30;;;8.80;99.90;;;;;;5029368;28;20057;-78
2021/12/20 11:41:07;;;;;;;0.43;0.43;;;8.90;99.90;;;;;;5043769;28;20037;-77
2021/12/20 11:43:33;;;;;;;1.55;1.35;;;8.80;99.90;;;;;;5076909;28;20068;-77
2021/12/20 11:46:04;;;;;;;1.98;0.82;;;8.80;99.90;;;;;;5046377;28;20041;-78
2021/12/20 11:48:31;;;;;;;3.47;1.27;;;8.80;99.90;;;;;;5065868;28;20498;-77
2021/12/20 11:50:59;;;;;;;1.10;1.10;;;8.80;99.90;;;;;;5047759;28;20420;-77
2021/12/20 11:53:33;;;;;;;7.03;1.25;;;8.90;99.90;;;;;;5028975;28;20166;-77
2021/12/20 11:55:59;;;;;;;1.30;0.88;;;9.00;99.90;;;;;;5054989;28;20040;-77
2021/12/20 11:58:28;;;;;;;0.40;0.40;;;9.00;99.90;;;;;;5032133;28;20052;-77
2021/12/20 12:01:19;;;;;;;17.50;3.13;;;9.00;99.90;;;;;;5042077;28;20570;-78
2021/12/20 12:03:57;;;;;;;1.80;1.65;;;9.00;99.90;;;;;;5065920;28;20420;-77
2021/12/20 12:06:26;;;;;;;2.20;1.65;;;9.10;99.90;;;;;;5048123;28;20043;-77
2021/12/20 12:08:52;;;;;;;0.50;0.50;;;9.00;99.90;;;;;;5034796;28;20151;-77
2021/12/20 12:11:19;;;;;;;0.43;0.43;;;9.00;99.90;;;;;;5028718;28;20484;-77
2021/12/20 12:13:59;;;;;;;0.30;0.30;;;9.00;99.90;;;;;;5027849;28;20045;-77
2021/12/20 12:17:03;;;;;;;0.63;0.63;;;9.00;99.90;;;;;;5036510;28;20170;-77
2021/12/20 12:19:49;;;;;;;3.47;1.42;;;9.00;99.90;;;;;;5076642;28;20040;-77
2021/12/20 12:22:41;;;;;;;3.60;1.33;;;8.80;99.90;;;;;;5028463;28;20048;-77
2021/12/20 12:25:34;;;;;;;0.20;0.20;;;8.70;99.90;;;;;;5028855;28;20112;-77
2021/12/20 12:28:00;;;;;;;0.20;0.20;;;8.80;99.90;;;;;;5026452;28;20429;-77
2021/12/20 12:30:28;;;;;;;2.08;1.00;;;8.80;99.90;;;;;;5044323;28;20037;-77
2021/12/20 12:32:55;;;;;;;2.50;1.15;;;8.80;99.90;;;;;;5082539;28;20044;-77
2021/12/20 12:35:39;;;;;;;3.42;0.52;;;8.70;99.90;;;;;;5060460;28;20036;-77
2021/12/20 12:38:16;;;;;;;0.65;0.65;;;8.60;99.90;;;;;;5052237;28;20044;-78
2021/12/20 12:40:49;;;;;;;2.17;0.43;;;8.50;99.90;;;;;;5046020;28;20090;-77
2021/12/20 12:43:26;;;;;;;0.80;0.47;;;8.50;99.90;;;;;;5044018;28;20036;-77
2021/12/20 12:45:56;;;;;;;0.20;0.20;;;8.50;99.90;;;;;;5073230;28;20469;-77
2021/12/20 12:48:49;;;;;;;1.38;0.80;;;8.50;99.90;;;;;;5033826;28;20464;-77
2021/12/20 12:51:18;;;;;;;0.30;0.30;;;8.40;99.90;;;;;;5024871;28;20133;-77
2021/12/20 12:53:53;;;;;;;0.43;0.43;;;8.30;99.90;;;;;;5046367;28;20425;-77
2021/12/20 12:56:27;;;;;;;0.20;0.20;;;8.30;99.90;;;;;;5035455;28;20412;-78
2021/12/20 12:59:11;;;;;;;0.20;0.20;;;8.20;99.90;;;;;;5052034;28;20396;-77
2021/12/20 13:01:52;;;;;;;0.77;0.43;;;8.20;99.90;;;;;;5036785;28;20045;-77
2021/12/20 13:04:19;;;;;;;0.20;0.20;;;8.10;99.90;;;;;;5043138;28;20072;-77
2021/12/20 13:06:45;;;;;;;0.30;0.30;;;8.10;99.90;;;;;;5038797;28;20476;-77
2021/12/20 13:09:10;;;;;;;0.38;0.38;;;8.00;99.90;;;;;;5025286;28;20148;-77
2021/12/20 13:11:36;;;;;;;0.20;0.20;;;8.00;99.90;;;;;;5064144;28;20128;-77
2021/12/20 13:14:13;;;;;;;7.38;0.63;;;7.90;99.90;;;;;;5037269;28;20054;-77
2021/12/20 13:16:58;;;;;;;0.20;0.20;;;7.80;99.90;;;;;;5045316;28;20045;-77
2021/12/20 13:19:32;;;;;;;0.75;0.75;;;7.80;99.90;;;;;;5050738;28;20035;-77
2021/12/20 13:21:59;;;;;;;0.20;0.20;;;7.80;99.90;;;;;;5031584;28;20051;-77
2021/12/20 13:24:27;;;;;;;0.40;0.40;;;7.80;99.90;;;;;;5030701;28;20037;-77
2021/12/20 13:27:06;;;;;;;0.30;0.30;;;7.70;99.90;;;;;;5049584;28;20452;-77